Time;durP1;ratioP1;P1;durP2;ratioP2;P2;SDS_P1;SDS_P2;PMS_P1;PMS_P2;Temp;Humidity;BMP_temperature;BMP_pressure;BME280_temperature;BME280_humidity;BME280_pressure;Samples;Min_cycle;Max_cycle;Signal;HPM_P1;HPM_P2
2023/01/30 00:00:13;;;;;;;32.13;12.63;;;;;;;;;;5008535;27;20415;-74
2023/01/30 00:02:40;;;;;;;26.85;11.90;;;;;;;;;;4917425;28;20078;-75
2023/01/30 00:12:41;;;;;;;31.00;12.05;;;;;;;;;;5066288;27;20409;-74
2023/01/30 00:40:55;;;;;;;27.73;12.85;;;;;;;;;;6207725;22;1381483;-74
2023/01/30 00:54:02;;;;;;;29.45;12.05;;;;;;;;;;5046199;27;20411;-73
2023/01/30 00:56:29;;;;;;;29.75;12.20;;;;;;;;;;4937169;28;20062;-75
2023/01/30 01:01:37;;;;;;;25.98;11.50;;;;;;;;;;5044010;27;20136;-75
2023/01/30 01:17:16;;;;;;;27.42;12.50;;;;;;;;;;5027724;27;20424;-75
2023/01/30 01:24:53;;;;;;;26.98;12.43;;;;;;;;;;4947358;27;20423;-74
2023/01/30 01:32:31;;;;;;;22.00;10.63;;;;;;;;;;4996017;27;1627940;-76
2023/01/30 01:43:15;;;;;;;21.50;10.25;;;;;;;;;;4915668;28;20062;-77
2023/01/30 01:50:51;;;;;;;23.52;10.35;;;;;;;;;;5025284;27;20446;-74
2023/01/30 01:53:19;;;;;;;20.20;9.55;;;;;;;;;;5006452;28;20057;-76
2023/01/30 01:55:47;;;;;;;23.70;9.60;;;;;;;;;;4939686;28;20069;-75
2023/01/30 02:03:58;;;;;;;15.98;8.00;;;;;;;;;;5040066;27;21069;-78
2023/01/30 02:11:37;;;;;;;17.98;7.65;;;;;;;;;;4956182;27;20442;-77
2023/01/30 02:24:52;;;;;;;14.27;6.40;;;;;;;;;;5004278;27;20490;-74
2023/01/30 02:32:37;;;;;;;15.15;6.47;;;;;;;;;;4996836;27;20948;-76
2023/01/30 02:43:04;;;;;;;12.50;5.63;;;;;;;;;;5024898;27;20530;-78
2023/01/30 02:52:17;;;;;;;13.88;4.70;;;;;;;;;;4982725;27;20146;-75
2023/01/30 02:59:54;;;;;;;11.50;4.93;;;;;;;;;;6319142;22;20400;-75
2023/01/30 03:02:29;;;;;;;17.10;5.35;;;;;;;;;;6097240;23;20031;-76
2023/01/30 06:41:03;;;;;;;8.15;1.83;;;;;;;;;;6289344;22;20038;-77
2023/01/30 06:43:31;;;;;;;5.53;1.85;;;;;;;;;;6100466;23;20139;-75
2023/01/30 06:48:40;;;;;;;7.00;1.77;;;;;;;;;;4986719;27;20508;-77
2023/01/30 06:51:07;;;;;;;6.72;1.95;;;;;;;;;;4923067;28;20319;-76
2023/01/30 08:15:53;;;;;;;12.27;1.50;;;;;;;;;;6169333;22;1617511;-73
2023/01/30 11:08:33;;;;;;;13.77;2.13;;;;;;;;;;4950752;27;20133;-72
2023/01/30 11:11:22;;;;;;;12.75;2.03;;;;;;;;;;4929739;28;20234;-71
2023/01/30 11:13:49;;;;;;;12.10;1.63;;;;;;;;;;4937359;28;20054;-71
2023/01/30 11:16:22;;;;;;;13.48;1.63;;;;;;;;;;4933851;28;20046;-72
2023/01/30 11:19:00;;;;;;;7.15;1.17;;;;;;;;;;4868506;28;20054;-72
2023/01/30 11:21:28;;;;;;;14.13;1.77;;;;;;;;;;4908419;28;20096;-71
2023/01/30 11:43:27;;;;;;;;;;;;;;;;;;;;;
2023/01/30 14:11:43;;;;;;;11.40;1.60;;;;;;;;;;6313411;22;1591125;-69
2023/01/30 14:14:40;;;;;;;17.77;2.03;;;;;;;;;;6186950;23;20025;-70
2023/01/30 14:17:09;;;;;;;12.15;2.10;;;;;;;;;;6014754;23;20026;-70
2023/01/30 14:19:38;;;;;;;12.82;1.98;;;;;;;;;;6012956;23;20034;-69
2023/01/30 14:22:42;;;;;;;10.07;1.73;;;;;;;;;;6068774;23;20025;-74
2023/01/30 14:43:04;;;;;;;12.68;2.17;;;;;;;;;;5540081;22;15776436;-69
2023/01/30 14:45:55;;;;;;;17.52;2.47;;;;;;;;;;6077822;23;20025;-68
2023/01/30 14:48:40;;;;;;;11.25;2.00;;;;;;;;;;6079802;23;20029;-71
2023/01/30 15:05:15;;;;;;;18.92;1.88;;;;;;;;;;4961329;28;20204;-70
2023/01/30 15:08:09;;;;;;;9.88;1.55;;;;;;;;;;4946833;28;20054;-70
2023/01/30 15:33:31;;;;;;;8.00;1.73;;;;;;;;;;4924316;28;20050;-72
2023/01/30 15:58:31;;;;;;;11.35;1.67;;;;;;;;;;5927093;23;20018;-70
2023/01/30 16:03:28;;;;;;;11.73;1.40;;;;;;;;;;6009691;23;20120;-69
2023/01/30 16:05:56;;;;;;;16.80;1.77;;;;;;;;;;6082803;23;20030;-72
2023/01/30 16:08:24;;;;;;;9.15;1.75;;;;;;;;;;6028127;23;20165;-79
2023/01/30 16:13:35;;;;;;;12.20;2.10;;;;;;;;;;5083511;27;20522;-70
2023/01/30 16:16:16;;;;;;;9.02;1.45;;;;;;;;;;5034394;28;20403;-71
2023/01/30 16:18:50;;;;;;;10.73;1.52;;;;;;;;;;5015881;28;20056;-71
2023/01/30 16:21:19;;;;;;;14.93;2.42;;;;;;;;;;4989707;28;20168;-71
2023/01/30 16:23:53;;;;;;;15.38;1.40;;;;;;;;;;5066104;28;20060;-72
2023/01/30 16:26:21;;;;;;;14.07;1.73;;;;;;;;;;5025300;28;20060;-69
2023/01/30 16:28:59;;;;;;;16.80;2.03;;;;;;;;;;5017111;28;20060;-70
2023/01/30 16:31:26;;;;;;;11.07;1.40;;;;;;;;;;4993447;28;20056;-69
2023/01/30 16:33:52;;;;;;;13.45;2.03;;;;;;;;;;4974434;28;20273;-70
2023/01/30 16:36:34;;;;;;;5.22;1.75;;;;;;;;;;5044237;28;20159;-71
2023/01/30 16:39:02;;;;;;;15.32;1.95;;;;;;;;;;4992718;28;20052;-73
2023/01/30 16:41:29;;;;;;;13.90;2.10;;;;;;;;;;5013125;28;20049;-70
2023/01/30 16:44:18;;;;;;;15.43;1.97;;;;;;;;;;5010244;28;20120;-71
2023/01/30 16:46:49;;;;;;;10.40;1.70;;;;;;;;;;5030609;28;20054;-70
2023/01/30 16:49:21;;;;;;;10.93;2.10;;;;;;;;;;5015708;28;20064;-72
2023/01/30 16:51:49;;;;;;;12.80;2.28;;;;;;;;;;5047245;28;20056;-72
2023/01/30 16:54:19;;;;;;;9.48;1.67;;;;;;;;;;5040488;28;20048;-71
2023/01/30 16:56:50;;;;;;;21.80;2.17;;;;;;;;;;5032494;28;20094;-72
2023/01/30 16:59:20;;;;;;;13.32;1.65;;;;;;;;;;5017631;28;20057;-70
2023/01/30 17:01:47;;;;;;;11.35;1.60;;;;;;;;;;5023649;28;20048;-69
2023/01/30 17:04:19;;;;;;;10.15;1.35;;;;;;;;;;5047782;28;20151;-71
2023/01/30 17:06:51;;;;;;;8.70;2.13;;;;;;;;;;5013762;28;20052;-70
2023/01/30 17:09:43;;;;;;;12.35;2.10;;;;;;;;;;5000955;28;20113;-71
2023/01/30 17:12:35;;;;;;;8.07;1.60;;;;;;;;;;4956639;28;20275;-70
2023/01/30 17:15:17;;;;;;;21.33;2.10;;;;;;;;;;5000169;28;20148;-68
2023/01/30 17:17:44;;;;;;;12.25;1.70;;;;;;;;;;5024845;28;20065;-69
2023/01/30 17:20:14;;;;;;;12.30;2.00;;;;;;;;;;5054842;28;20056;-70
2023/01/30 17:22:43;;;;;;;15.45;2.40;;;;;;;;;;5018635;28;20048;-70
2023/01/30 17:25:14;;;;;;;8.07;1.70;;;;;;;;;;4998866;28;20060;-69
2023/01/30 17:27:41;;;;;;;14.48;2.20;;;;;;;;;;5013580;28;20053;-69
2023/01/30 17:30:12;;;;;;;13.02;1.63;;;;;;;;;;4991249;28;20223;-71
2023/01/30 17:32:39;;;;;;;19.27;1.85;;;;;;;;;;4986891;28;20049;-68
2023/01/30 17:35:11;;;;;;;18.55;1.73;;;;;;;;;;4989073;28;20060;-68
2023/01/30 17:37:37;;;;;;;7.88;1.77;;;;;;;;;;5011446;28;20053;-69
2023/01/30 17:40:11;;;;;;;10.55;1.88;;;;;;;;;;5009171;28;20057;-68
2023/01/30 17:42:37;;;;;;;13.18;2.08;;;;;;;;;;5004524;28;20057;-70
2023/01/30 17:45:07;;;;;;;8.63;1.77;;;;;;;;;;4989456;28;20088;-68
2023/01/30 17:47:34;;;;;;;12.75;1.48;;;;;;;;;;5022353;28;20057;-68
2023/01/30 17:50:00;;;;;;;9.70;1.80;;;;;;;;;;5002529;28;20084;-73
2023/01/30 17:52:41;;;;;;;17.25;2.08;;;;;;;;;;4928940;28;20132;-71
2023/01/30 17:55:12;;;;;;;8.48;1.20;;;;;;;;;;4934668;28;20046;-72
2023/01/30 17:57:43;;;;;;;10.75;1.60;;;;;;;;;;4945658;28;20688;-73
2023/01/30 18:02:37;;;;;;;13.95;1.85;;;;;;;;;;4817071;29;20055;-72
2023/01/30 18:05:04;;;;;;;10.70;1.77;;;;;;;;;;4882855;28;20062;-70
2023/01/30 18:07:31;;;;;;;9.63;1.65;;;;;;;;;;4889094;29;20059;-71
2023/01/30 18:10:00;;;;;;;9.90;1.60;;;;;;;;;;4881805;28;20138;-71
2023/01/30 18:12:27;;;;;;;6.35;1.50;;;;;;;;;;4958897;28;20064;-72
2023/01/30 18:14:54;;;;;;;11.18;1.80;;;;;;;;;;5019476;28;20053;-73
2023/01/30 18:17:22;;;;;;;11.43;2.28;;;;;;;;;;5031742;28;20057;-72
2023/01/30 18:19:49;;;;;;;9.43;1.73;;;;;;;;;;4991163;28;20188;-72
2023/01/30 18:22:16;;;;;;;10.48;1.65;;;;;;;;;;4964541;28;20063;-72
2023/01/30 18:24:42;;;;;;;7.57;2.05;;;;;;;;;;5007818;28;20053;-71
2023/01/30 18:27:10;;;;;;;7.85;2.05;;;;;;;;;;5005531;28;20291;-71
2023/01/30 18:29:37;;;;;;;8.65;1.85;;;;;;;;;;5009410;28;20069;-71
2023/01/30 18:32:05;;;;;;;15.57;2.00;;;;;;;;;;4919331;28;20850;-73
2023/01/30 18:34:31;;;;;;;14.10;2.03;;;;;;;;;;4919656;28;20171;-72
2023/01/30 18:36:58;;;;;;;8.88;1.48;;;;;;;;;;5013035;28;20060;-71
2023/01/30 18:39:25;;;;;;;10.43;2.15;;;;;;;;;;5008807;28;20114;-71
2023/01/30 18:41:52;;;;;;;8.15;2.03;;;;;;;;;;5015548;28;20053;-71
2023/01/30 18:44:20;;;;;;;9.70;1.90;;;;;;;;;;4986805;28;20088;-72
2023/01/30 18:46:50;;;;;;;11.88;2.22;;;;;;;;;;4987906;28;20045;-72
2023/01/30 18:49:16;;;;;;;11.43;1.80;;;;;;;;;;4991039;28;20049;-70
2023/01/30 18:51:43;;;;;;;12.48;2.10;;;;;;;;;;4972073;28;20064;-71
2023/01/30 18:54:10;;;;;;;11.18;2.15;;;;;;;;;;4979857;28;20052;-69
2023/01/30 18:56:37;;;;;;;13.07;2.40;;;;;;;;;;4960900;28;20061;-70
2023/01/30 18:59:05;;;;;;;11.05;2.00;;;;;;;;;;4984045;28;20579;-69
2023/01/30 19:01:35;;;;;;;11.32;2.67;;;;;;;;;;5008032;28;20056;-69
2023/01/30 19:04:03;;;;;;;15.75;2.65;;;;;;;;;;4987180;28;21469;-69
2023/01/30 19:06:29;;;;;;;15.68;3.22;;;;;;;;;;5014812;28;20061;-70
2023/01/30 19:08:58;;;;;;;11.07;2.25;;;;;;;;;;4998920;28;20057;-71
2023/01/30 19:14:09;;;;;;;11.05;1.90;;;;;;;;;;5012040;28;19921;-69
2023/01/30 19:16:38;;;;;;;13.95;2.05;;;;;;;;;;5017220;28;20084;-70
2023/01/30 19:19:05;;;;;;;10.98;2.08;;;;;;;;;;5011447;28;20139;-70
2023/01/30 19:21:32;;;;;;;10.73;2.17;;;;;;;;;;5031089;28;20064;-70
2023/01/30 19:23:58;;;;;;;14.18;2.90;;;;;;;;;;5007385;28;20057;-71
2023/01/30 19:26:25;;;;;;;8.93;2.22;;;;;;;;;;5028776;28;20506;-70
2023/01/30 19:28:52;;;;;;;8.25;2.08;;;;;;;;;;5010555;28;20057;-68
2023/01/30 19:31:19;;;;;;;10.77;2.20;;;;;;;;;;5020857;28;20059;-70
2023/01/30 19:33:52;;;;;;;7.28;1.80;;;;;;;;;;5010304;28;20059;-71
2023/01/30 19:36:20;;;;;;;13.50;2.42;;;;;;;;;;5007660;28;20049;-70
2023/01/30 19:38:48;;;;;;;14.90;2.45;;;;;;;;;;5013784;28;20083;-70
2023/01/30 19:41:16;;;;;;;12.18;2.22;;;;;;;;;;4983094;28;20081;-69
2023/01/30 19:43:43;;;;;;;13.13;2.03;;;;;;;;;;4993548;28;20060;-70
2023/01/30 19:46:10;;;;;;;11.15;2.25;;;;;;;;;;4993928;28;20083;-70
2023/01/30 19:48:37;;;;;;;7.57;1.83;;;;;;;;;;4971537;28;20136;-69
2023/01/30 19:51:12;;;;;;;10.35;2.05;;;;;;;;;;4975037;28;20056;-71
2023/01/30 19:53:38;;;;;;;12.82;2.17;;;;;;;;;;5015360;28;20057;-70
2023/01/30 19:56:05;;;;;;;16.65;2.42;;;;;;;;;;4992410;28;20122;-70
2023/01/30 19:58:32;;;;;;;11.43;2.10;;;;;;;;;;4991456;28;20084;-70
2023/01/30 20:03:25;;;;;;;11.23;2.38;;;;;;;;;;4940395;28;20417;-71
2023/01/30 20:05:51;;;;;;;10.65;2.10;;;;;;;;;;4956225;28;20123;-70
2023/01/30 20:08:20;;;;;;;10.38;2.15;;;;;;;;;;5014960;28;20073;-71
2023/01/30 20:10:46;;;;;;;7.25;1.85;;;;;;;;;;4977735;28;20057;-69
2023/01/30 20:13:16;;;;;;;9.85;2.42;;;;;;;;;;5012100;28;21134;-70
2023/01/30 20:15:43;;;;;;;10.70;2.55;;;;;;;;;;4995060;28;20057;-70
2023/01/30 20:18:14;;;;;;;12.02;1.92;;;;;;;;;;5010378;28;20103;-71
2023/01/30 20:20:54;;;;;;;13.00;2.50;;;;;;;;;;4980158;28;20157;-70
2023/01/30 20:44:29;;;;;;;12.75;2.33;;;;;;;;;;5749726;22;8014577;-70
2023/01/30 20:47:41;;;;;;;15.32;2.17;;;;;;;;;;5958458;23;20086;-70
2023/01/30 20:53:15;;;;;;;7.63;1.85;;;;;;;;;;4971833;27;20650;-72
2023/01/30 20:55:54;;;;;;;;;;;;;;;;;;;;;
2023/01/30 20:58:31;;;;;;;11.50;2.45;;;;;;;;;;4905024;28;20142;-72
2023/01/30 21:04:08;;;;;;;11.68;2.58;;;;;;;;;;4924931;28;20061;-72
2023/01/30 21:06:35;;;;;;;9.07;2.47;;;;;;;;;;4899316;28;20051;-70
2023/01/30 21:09:05;;;;;;;8.77;2.10;;;;;;;;;;4972886;28;20056;-71
2023/01/30 21:11:31;;;;;;;9.30;2.53;;;;;;;;;;4974250;28;20339;-70
2023/01/30 21:13:59;;;;;;;6.97;1.98;;;;;;;;;;5017227;28;20114;-71
2023/01/30 21:16:27;;;;;;;9.05;2.03;;;;;;;;;;5030847;28;20045;-69
2023/01/30 21:18:58;;;;;;;8.97;2.07;;;;;;;;;;5018419;28;20087;-72
2023/01/30 21:21:26;;;;;;;8.80;1.75;;;;;;;;;;4985453;28;20319;-69
2023/01/30 21:23:54;;;;;;;8.18;2.15;;;;;;;;;;4973039;28;20145;-69
2023/01/30 21:26:24;;;;;;;9.60;2.10;;;;;;;;;;4996104;28;20176;-70
2023/01/30 21:28:54;;;;;;;11.43;2.25;;;;;;;;;;5003497;28;20053;-70
2023/01/30 21:31:22;;;;;;;12.48;2.30;;;;;;;;;;5001435;28;20080;-70
2023/01/30 21:33:51;;;;;;;10.18;2.05;;;;;;;;;;4970470;28;20061;-69
2023/01/30 21:36:18;;;;;;;12.38;2.67;;;;;;;;;;4990953;28;20338;-70
2023/01/30 21:44:17;;;;;;;13.20;2.38;;;;;;;;;;5030829;28;20056;-69
2023/01/30 21:46:45;;;;;;;11.50;2.13;;;;;;;;;;4997418;28;20069;-70
2023/01/30 21:49:11;;;;;;;8.00;1.90;;;;;;;;;;4978995;28;20060;-69
2023/01/30 21:51:40;;;;;;;12.77;2.80;;;;;;;;;;4990479;28;20057;-69
2023/01/30 21:54:07;;;;;;;6.88;1.73;;;;;;;;;;5021782;28;20059;-69
2023/01/30 21:56:35;;;;;;;9.98;2.35;;;;;;;;;;4991552;28;20139;-69
2023/01/30 21:59:02;;;;;;;10.73;1.90;;;;;;;;;;4980826;28;20048;-69
2023/01/30 22:01:29;;;;;;;11.23;2.00;;;;;;;;;;5005441;28;20040;-69
2023/01/30 22:03:58;;;;;;;10.20;2.25;;;;;;;;;;4972960;28;20064;-69
2023/01/30 22:06:25;;;;;;;8.82;2.03;;;;;;;;;;4961019;28;20050;-69
2023/01/30 22:08:55;;;;;;;11.23;2.05;;;;;;;;;;4955635;28;20135;-70
2023/01/30 22:11:22;;;;;;;6.85;1.95;;;;;;;;;;5000931;28;20213;-70
2023/01/30 22:13:51;;;;;;;8.32;2.03;;;;;;;;;;5010733;28;20081;-70
2023/01/30 22:16:20;;;;;;;11.90;1.80;;;;;;;;;;4991901;28;20061;-69
2023/01/30 22:18:46;;;;;;;;;;;;;;;;;;4981238;28;20456;-68
2023/01/30 22:21:14;;;;;;;13.15;2.15;;;;;;;;;;4997452;28;19925;-69
2023/01/30 22:23:42;;;;;;;12.07;1.80;;;;;;;;;;4965860;28;20080;-69
2023/01/30 22:29:16;;;;;;;7.90;1.85;;;;;;;;;;4941445;28;20058;-69
2023/01/30 22:50:13;;;;;;;8.82;2.35;;;;;;;;;;6390079;22;20022;-70
2023/01/30 22:52:54;;;;;;;8.77;1.90;;;;;;;;;;5897722;22;2234364;-71
2023/01/30 22:55:28;;;;;;;9.27;1.85;;;;;;;;;;6001471;23;20139;-70
2023/01/30 22:58:08;;;;;;;8.73;1.80;;;;;;;;;;6020265;23;20073;-70
2023/01/30 23:00:42;;;;;;;6.05;2.17;;;;;;;;;;6035682;23;20025;-70
2023/01/30 23:27:10;;;;;;;9.27;1.63;;;;;;;;;;6051885;23;20064;-70
2023/01/30 23:29:37;;;;;;;12.05;1.90;;;;;;;;;;6074013;22;20089;-69
2023/01/30 23:32:04;;;;;;;15.75;2.38;;;;;;;;;;6245278;22;20023;-71
2023/01/30 23:34:33;;;;;;;12.65;2.90;;;;;;;;;;6177494;22;20139;-71
2023/01/30 23:37:00;;;;;;;7.68;1.95;;;;;;;;;;6214883;22;20106;-70
2023/01/30 23:39:26;;;;;;;10.60;2.17;;;;;;;;;;6239386;22;20081;-71
2023/01/30 23:41:53;;;;;;;13.13;2.80;;;;;;;;;;6262717;22;20016;-70
2023/01/30 23:44:21;;;;;;;12.35;1.77;;;;;;;;;;6221363;22;20024;-70
2023/01/30 23:46:47;;;;;;;9.65;2.70;;;;;;;;;;6262081;22;20023;-70
2023/01/30 23:49:14;;;;;;;9.95;1.80;;;;;;;;;;6226859;22;20023;-69
2023/01/30 23:51:42;;;;;;;10.85;2.08;;;;;;;;;;6250819;22;20019;-69
2023/01/30 23:54:09;;;;;;;5.32;1.83;;;;;;;;;;6254301;22;20075;-69
2023/01/30 23:56:38;;;;;;;6.82;1.92;;;;;;;;;;6262637;22;20024;-70
2023/01/30 23:59:04;;;;;;;;;;;;;;;;;;6224180;22;20029;-69
